TimeCDT,TemperatureF,Dew PointF,Humidity,Sea Level PressureIn,VisibilityMPH,Wind Direction,Wind SpeedMPH,Gust SpeedMPH,PrecipitationIn,Events,Conditions,WindDirDegrees,DateUTC
12:15 AM,74.7,69.1,83,29.94,10.0,SSE,6.9,-,N/A,,Mostly Cloudy,150,2013-05-17 05:15:00
12:35 AM,74.5,69.3,84,29.93,10.0,SSE,5.8,-,N/A,,Mostly Cloudy,160,2013-05-17 05:35:00
12:55 AM,74.8,69.4,83,29.93,10.0,SSE,6.9,-,N/A,,Mostly Cloudy,160,2013-05-17 05:55:00
1:15 AM,75.2,69.8,83,29.93,10.0,SSE,5.8,-,N/A,,Overcast,160,2013-05-17 06:15:00
1:35 AM,75.2,70.2,84,29.93,10.0,SSE,6.9,-,N/A,,Overcast,160,2013-05-17 06:35:00
1:55 AM,75.4,70.2,84,29.93,10.0,South,6.9,-,N/A,,Overcast,170,2013-05-17 06:55:00
2:15 AM,75.6,70.0,83,29.93,10.0,South,8.1,-,N/A,,Overcast,180,2013-05-17 07:15:00
2:35 AM,75.4,70.2,84,29.93,10.0,South,9.2,-,N/A,,Mostly Cloudy,170,2013-05-17 07:35:00
2:55 AM,75.2,69.8,83,29.92,10.0,South,8.1,-,N/A,,Scattered Clouds,170,2013-05-17 07:55:00
3:15 AM,75.2,69.8,83,29.92,10.0,South,6.9,-,N/A,,Scattered Clouds,180,2013-05-17 08:15:00
3:35 AM,74.8,70.0,85,29.93,10.0,South,5.8,-,N/A,,Scattered Clouds,180,2013-05-17 08:35:00
3:55 AM,75.4,70.2,84,29.93,10.0,South,6.9,-,N/A,,Overcast,180,2013-05-17 08:55:00
4:15 AM,75.2,70.0,84,29.93,10.0,South,6.9,-,N/A,,Overcast,170,2013-05-17 09:15:00
4:35 AM,74.8,70.0,85,29.93,10.0,South,5.8,-,N/A,,Mostly Cloudy,170,2013-05-17 09:35:00
4:55 AM,75.2,70.2,84,29.94,10.0,South,8.1,-,N/A,,Overcast,170,2013-05-17 09:55:00
5:15 AM,75.2,70.2,84,29.94,10.0,South,5.8,-,N/A,,Mostly Cloudy,180,2013-05-17 10:15:00
5:35 AM,74.7,70.0,85,29.94,10.0,South,9.2,-,N/A,,Mostly Cloudy,180,2013-05-17 10:35:00
5:55 AM,75.0,70.0,84,29.95,10.0,South,5.8,-,N/A,,Overcast,180,2013-05-17 10:55:00
6:15 AM,74.8,70.2,85,29.95,10.0,South,6.9,-,N/A,,Overcast,170,2013-05-17 11:15:00
6:35 AM,75.2,70.3,85,29.95,10.0,South,8.1,-,N/A,,Mostly Cloudy,170,2013-05-17 11:35:00
6:55 AM,75.4,70.7,85,29.95,10.0,South,8.1,-,N/A,,Mostly Cloudy,170,2013-05-17 11:55:00
7:15 AM,75.6,70.7,85,29.95,10.0,South,9.2,-,N/A,,Overcast,180,2013-05-17 12:15:00
7:35 AM,76.1,70.3,82,29.96,10.0,South,6.9,-,N/A,,Overcast,180,2013-05-17 12:35:00
7:55 AM,76.5,70.2,81,29.96,10.0,South,9.2,-,N/A,,Overcast,190,2013-05-17 12:55:00
8:15 AM,77.5,70.3,78,29.97,10.0,South,10.4,16.1,N/A,,Overcast,180,2013-05-17 13:15:00
8:35 AM,77.9,70.0,76,29.98,10.0,South,6.9,-,N/A,,Overcast,180,2013-05-17 13:35:00
8:55 AM,78.6,69.6,74,29.99,10.0,South,6.9,-,N/A,,Overcast,180,2013-05-17 13:55:00
9:15 AM,78.8,68.9,72,29.99,10.0,South,9.2,-,N/A,,Overcast,190,2013-05-17 14:15:00
9:55 AM,81.3,66.6,61,30.00,10.0,South,9.2,17.3,N/A,,Overcast,180,2013-05-17 14:55:00
10:15 AM,81.5,68.2,64,30.01,10.0,South,9.2,-,N/A,,Scattered Clouds,190,2013-05-17 15:15:00
10:35 AM,82.9,65.3,55,30.01,10.0,South,11.5,-,N/A,,Scattered Clouds,170,2013-05-17 15:35:00
11:15 AM,82.4,66.7,59,30.02,10.0,South,5.8,-,N/A,,Mostly Cloudy,190,2013-05-17 16:15:00
11:35 AM,82.8,66.2,57,30.02,10.0,South,8.1,-,N/A,,Mostly Cloudy,180,2013-05-17 16:35:00
11:55 AM,83.8,66.4,56,30.02,10.0,South,10.4,-,N/A,,Mostly Cloudy,190,2013-05-17 16:55:00
12:15 PM,84.6,68.0,57,30.01,10.0,SSE,10.4,-,N/A,,Mostly Cloudy,160,2013-05-17 17:15:00
12:35 PM,84.2,67.1,56,30.00,10.0,SSE,12.7,16.1,N/A,,Mostly Cloudy,150,2013-05-17 17:35:00
12:55 PM,84.4,67.6,57,30.00,10.0,South,11.5,-,N/A,,Mostly Cloudy,170,2013-05-17 17:55:00
1:15 PM,84.4,67.5,57,30.00,10.0,South,11.5,17.3,N/A,,Mostly Cloudy,170,2013-05-17 18:15:00
1:35 PM,83.8,68.2,59,30.00,10.0,SSE,13.8,18.4,N/A,,Overcast,150,2013-05-17 18:35:00
1:55 PM,83.5,67.6,59,30.00,10.0,SSE,12.7,-,N/A,,Overcast,160,2013-05-17 18:55:00
2:15 PM,83.8,68.0,59,29.99,10.0,South,12.7,-,N/A,,Overcast,170,2013-05-17 19:15:00
2:35 PM,83.5,68.7,61,29.99,10.0,SSE,13.8,17.3,N/A,,Overcast,160,2013-05-17 19:35:00
2:55 PM,85.1,68.5,57,29.98,10.0,South,12.7,18.4,N/A,,Overcast,170,2013-05-17 19:55:00
3:15 PM,84.2,68.0,58,29.97,10.0,South,12.7,-,N/A,,Overcast,170,2013-05-17 20:15:00
3:35 PM,84.0,67.5,57,29.97,10.0,SSE,15.0,-,N/A,,Overcast,160,2013-05-17 20:35:00
3:55 PM,83.7,66.6,56,29.96,10.0,SSE,16.1,-,N/A,,Mostly Cloudy,160,2013-05-17 20:55:00
4:15 PM,84.2,66.4,55,29.95,10.0,South,12.7,17.3,N/A,,Scattered Clouds,170,2013-05-17 21:15:00
4:35 PM,84.2,65.8,54,29.95,10.0,South,9.2,18.4,N/A,,Scattered Clouds,170,2013-05-17 21:35:00
4:55 PM,84.0,65.5,54,29.95,10.0,South,9.2,-,N/A,,Clear,180,2013-05-17 21:55:00
5:15 PM,83.7,66.6,56,29.95,10.0,South,10.4,-,N/A,,Scattered Clouds,170,2013-05-17 22:15:00
5:35 PM,83.3,66.6,57,29.95,10.0,South,10.4,-,N/A,,Scattered Clouds,180,2013-05-17 22:35:00
5:55 PM,82.8,66.9,59,29.96,10.0,South,10.4,-,N/A,,Scattered Clouds,170,2013-05-17 22:55:00
6:15 PM,81.9,67.3,61,29.96,10.0,South,11.5,-,N/A,,Scattered Clouds,170,2013-05-17 23:15:00
6:35 PM,80.8,68.4,66,29.96,10.0,South,10.4,-,N/A,,Scattered Clouds,170,2013-05-17 23:35:00
6:55 PM,80.6,68.5,67,29.97,10.0,South,9.2,-,N/A,,Scattered Clouds,180,2013-05-17 23:55:00
7:15 PM,79.7,68.9,69,29.97,10.0,South,10.4,-,N/A,,Mostly Cloudy,180,2013-05-18 00:15:00
7:35 PM,78.6,69.6,74,29.98,10.0,South,5.8,-,N/A,,Mostly Cloudy,170,2013-05-18 00:35:00
7:55 PM,77.9,70.0,76,29.98,10.0,SSE,6.9,-,N/A,,Mostly Cloudy,160,2013-05-18 00:55:00
8:15 PM,77.5,70.7,79,29.98,10.0,SSE,5.8,-,N/A,,Overcast,150,2013-05-18 01:15:00
8:35 PM,77.4,70.7,80,29.98,10.0,SSE,5.8,-,N/A,,Mostly Cloudy,150,2013-05-18 01:35:00
8:55 PM,77.0,70.7,81,29.99,10.0,SSE,6.9,-,N/A,,Mostly Cloudy,160,2013-05-18 01:55:00
9:15 PM,76.8,70.7,81,29.99,10.0,SSE,8.1,-,N/A,,Mostly Cloudy,150,2013-05-18 02:15:00
9:35 PM,76.5,70.9,83,30.00,10.0,SSE,8.1,-,N/A,,Scattered Clouds,160,2013-05-18 02:35:00
9:55 PM,77.0,71.1,82,30.01,10.0,South,6.9,-,N/A,,Scattered Clouds,170,2013-05-18 02:55:00
10:15 PM,77.0,71.4,83,30.01,10.0,South,6.9,-,N/A,,Mostly Cloudy,170,2013-05-18 03:15:00
10:35 PM,77.0,71.6,83,30.01,10.0,South,5.8,-,N/A,,Overcast,170,2013-05-18 03:35:00
10:55 PM,77.0,71.6,83,30.01,10.0,South,8.1,-,N/A,,Overcast,170,2013-05-18 03:55:00
11:15 PM,77.2,71.6,83,30.01,10.0,South,10.4,-,N/A,,Mostly Cloudy,170,2013-05-18 04:15:00
11:35 PM,77.2,71.8,83,30.01,10.0,South,9.2,-,N/A,,Mostly Cloudy,170,2013-05-18 04:35:00
11:55 PM,77.2,72.0,84,30.01,10.0,South,9.2,-,N/A,,Overcast,170,2013-05-18 04:55:00